Airfield :
LOGIN :

Register | Disclaimer

   EN    FR    IT 

 










Legend :    VFR   Marginal VFR   IFR   Intensive IFR   Very Intensive IFR
Visi :
Ceiling :
>= 8 km
>= 3000ft
5 to 8 km
1000 to 3000 ft
1500m to 5 km
500 to 1000 ft
800 to 1500m
200 to 500 ft
< 800m
< 200 ft
Symbols :   Thunderstorms  Fog  Heavy snow  Heavy precipitations  Wind > 20 kt
SIGMETs :     Misc.  Thunderstorms  Icing  Turbulence  Mountain Waves  Volcanic Ashes






- Airport Elevation : 14 ft
- IATA code : BRE


EDDW - Bremen Neuenland

CURRENT METAR :
  • 041450Z 18005KT 130V230 CAVOK 13/01 Q1025 NOSIG

EXPIRED METARs :
  • 041420Z 22006KT 150V280 CAVOK 13/01 Q1025 NOSIG
  • 041350Z 21004KT 150V260 CAVOK 12/01 Q1025 NOSIG
  • 041320Z 22005KT 150V280 9999 FEW048 13/02 Q1025 NOSIG
  • 041250Z 22007KT 160V290 9999 FEW048 13/01 Q1025 NOSIG
  • 041220Z 22007KT 180V260 9999 FEW046 12/02 Q1025 NOSIG

TAF TAF EDDW
Valid from the 04 at 12:00 until the 05 at 12:00 UTC


041100Z 0412/0512 21007KT CAVOK
BECMG 0415/0417 12006KT
BECMG 0507/0509 13011KT



MET'MAP, your aeronautical weather chart ! - Copyright ORBIFLY December 2007 - Disclaimer

ORBIFLY MET'MAP TEAM :

Programming & Development : Alexandra Zaïnal
Concept & original design : Baudouin d'Aumeries
Assistance for programming : Marc-Olivier Méhu
Technical & hardware support : Manuel Goepfert

Contact : metmap@orbifly.com




SOURCES & CREDITS :

   NOAA